sensor_id;sensor_type;location;lat;lon;timestamp;P1;durP1;ratioP1;P2;durP2;ratioP2
29210;SDS011;16250;49.932;10.980;2024-02-15T00:01:04;72.95;;;45.92;;
29210;SDS011;16250;49.932;10.980;2024-02-15T00:03:29;59.08;;;38.38;;
29210;SDS011;16250;49.932;10.980;2024-02-15T00:05:56;59.58;;;40.20;;
29210;SDS011;16250;49.932;10.980;2024-02-15T00:08:22;68.72;;;41.05;;
29210;SDS011;16250;49.932;10.980;2024-02-15T00:10:47;68.25;;;41.95;;
29210;SDS011;16250;49.932;10.980;2024-02-15T00:13:13;72.47;;;43.65;;
29210;SDS011;16250;49.932;10.980;2024-02-15T00:15:39;65.60;;;41.35;;
29210;SDS011;16250;49.932;10.980;2024-02-15T00:18:04;64.15;;;43.03;;
29210;SDS011;16250;49.932;10.980;2024-02-15T00:20:29;75.60;;;45.05;;
29210;SDS011;16250;49.932;10.980;2024-02-15T00:22:55;74.60;;;44.67;;
29210;SDS011;16250;49.932;10.980;2024-02-15T00:25:21;76.97;;;44.45;;
29210;SDS011;16250;49.932;10.980;2024-02-15T00:27:46;67.13;;;42.00;;
29210;SDS011;16250;49.932;10.980;2024-02-15T00:30:12;63.95;;;40.60;;
29210;SDS011;16250;49.932;10.980;2024-02-15T00:32:38;61.08;;;39.42;;
29210;SDS011;16250;49.932;10.980;2024-02-15T00:35:04;69.07;;;40.80;;
29210;SDS011;16250;49.932;10.980;2024-02-15T00:37:34;60.85;;;41.25;;
29210;SDS011;16250;49.932;10.980;2024-02-15T00:39:59;73.85;;;43.50;;
29210;SDS011;16250;49.932;10.980;2024-02-15T00:42:25;80.57;;;47.63;;
29210;SDS011;16250;49.932;10.980;2024-02-15T00:44:50;75.68;;;43.85;;
29210;SDS011;16250;49.932;10.980;2024-02-15T00:47:16;71.82;;;43.10;;
29210;SDS011;16250;49.932;10.980;2024-02-15T00:49:43;86.07;;;47.92;;
29210;SDS011;16250;49.932;10.980;2024-02-15T00:52:09;88.72;;;48.45;;
29210;SDS011;16250;49.932;10.980;2024-02-15T00:54:35;80.70;;;46.92;;
29210;SDS011;16250;49.932;10.980;2024-02-15T00:57:01;79.22;;;45.75;;
29210;SDS011;16250;49.932;10.980;2024-02-15T00:59:26;82.78;;;48.05;;
29210;SDS011;16250;49.932;10.980;2024-02-15T01:01:51;92.32;;;48.63;;
29210;SDS011;16250;49.932;10.980;2024-02-15T01:04:18;93.05;;;49.05;;
29210;SDS011;16250;49.932;10.980;2024-02-15T01:06:44;86.20;;;47.40;;
29210;SDS011;16250;49.932;10.980;2024-02-15T01:09:10;87.78;;;48.22;;
29210;SDS011;16250;49.932;10.980;2024-02-15T01:11:35;83.32;;;47.50;;
29210;SDS011;16250;49.932;10.980;2024-02-15T01:14:02;82.53;;;48.28;;
29210;SDS011;16250;49.932;10.980;2024-02-15T01:16:28;88.18;;;47.88;;
29210;SDS011;16250;49.932;10.980;2024-02-15T01:18:53;81.05;;;46.80;;
29210;SDS011;16250;49.932;10.980;2024-02-15T01:21:19;73.03;;;44.13;;
29210;SDS011;16250;49.932;10.980;2024-02-15T01:23:44;80.45;;;46.22;;
29210;SDS011;16250;49.932;10.980;2024-02-15T01:26:11;76.88;;;45.25;;
29210;SDS011;16250;49.932;10.980;2024-02-15T01:28:39;86.00;;;48.40;;
29210;SDS011;16250;49.932;10.980;2024-02-15T01:31:05;96.47;;;50.03;;
29210;SDS011;16250;49.932;10.980;2024-02-15T01:33:31;83.05;;;46.40;;
29210;SDS011;16250;49.932;10.980;2024-02-15T01:35:57;84.07;;;46.28;;
29210;SDS011;16250;49.932;10.980;2024-02-15T01:38:22;95.47;;;49.28;;
29210;SDS011;16250;49.932;10.980;2024-02-15T01:40:47;78.95;;;46.60;;
29210;SDS011;16250;49.932;10.980;2024-02-15T01:43:13;80.35;;;45.65;;
29210;SDS011;16250;49.932;10.980;2024-02-15T01:45:39;86.88;;;47.22;;
29210;SDS011;16250;49.932;10.980;2024-02-15T01:48:04;80.18;;;46.00;;
29210;SDS011;16250;49.932;10.980;2024-02-15T01:50:30;86.60;;;47.72;;
29210;SDS011;16250;49.932;10.980;2024-02-15T01:52:57;93.93;;;50.08;;
29210;SDS011;16250;49.932;10.980;2024-02-15T01:55:23;84.05;;;45.13;;
29210;SDS011;16250;49.932;10.980;2024-02-15T01:57:53;91.00;;;48.85;;
29210;SDS011;16250;49.932;10.980;2024-02-15T02:00:18;79.97;;;46.08;;
29210;SDS011;16250;49.932;10.980;2024-02-15T02:02:44;99.13;;;50.30;;
29210;SDS011;16250;49.932;10.980;2024-02-15T02:05:10;88.72;;;47.72;;
29210;SDS011;16250;49.932;10.980;2024-02-15T02:07:36;96.65;;;49.67;;
29210;SDS011;16250;49.932;10.980;2024-02-15T02:10:03;72.57;;;43.63;;
29210;SDS011;16250;49.932;10.980;2024-02-15T02:12:29;72.13;;;42.13;;
29210;SDS011;16250;49.932;10.980;2024-02-15T02:14:56;93.35;;;46.85;;
29210;SDS011;16250;49.932;10.980;2024-02-15T02:17:21;77.53;;;43.38;;
29210;SDS011;16250;49.932;10.980;2024-02-15T02:19:46;102.40;;;50.28;;
29210;SDS011;16250;49.932;10.980;2024-02-15T02:22:14;83.32;;;47.05;;
29210;SDS011;16250;49.932;10.980;2024-02-15T02:27:41;85.32;;;45.90;;
29210;SDS011;16250;49.932;10.980;2024-02-15T02:30:12;74.13;;;42.22;;
29210;SDS011;16250;49.932;10.980;2024-02-15T02:32:46;88.03;;;46.97;;
29210;SDS011;16250;49.932;10.980;2024-02-15T02:35:12;94.30;;;47.88;;
29210;SDS011;16250;49.932;10.980;2024-02-15T02:37:38;76.13;;;44.60;;
29210;SDS011;16250;49.932;10.980;2024-02-15T02:40:05;81.88;;;44.72;;
29210;SDS011;16250;49.932;10.980;2024-02-15T02:42:35;90.60;;;46.70;;
29210;SDS011;16250;49.932;10.980;2024-02-15T02:45:01;73.20;;;43.50;;
29210;SDS011;16250;49.932;10.980;2024-02-15T02:47:26;78.10;;;43.80;;
29210;SDS011;16250;49.932;10.980;2024-02-15T02:49:52;86.80;;;45.35;;
29210;SDS011;16250;49.932;10.980;2024-02-15T02:52:17;74.75;;;42.85;;
29210;SDS011;16250;49.932;10.980;2024-02-15T02:54:43;76.80;;;42.92;;
29210;SDS011;16250;49.932;10.980;2024-02-15T02:57:08;80.15;;;44.90;;
29210;SDS011;16250;49.932;10.980;2024-02-15T02:59:34;84.32;;;46.17;;
29210;SDS011;16250;49.932;10.980;2024-02-15T03:02:00;80.20;;;43.53;;
29210;SDS011;16250;49.932;10.980;2024-02-15T03:04:26;81.25;;;46.25;;
29210;SDS011;16250;49.932;10.980;2024-02-15T03:06:51;85.63;;;47.63;;
29210;SDS011;16250;49.932;10.980;2024-02-15T03:09:18;77.80;;;45.20;;
29210;SDS011;16250;49.932;10.980;2024-02-15T03:11:45;66.15;;;41.78;;
29210;SDS011;16250;49.932;10.980;2024-02-15T03:14:11;75.40;;;43.13;;
29210;SDS011;16250;49.932;10.980;2024-02-15T03:16:37;73.35;;;43.20;;
29210;SDS011;16250;49.932;10.980;2024-02-15T03:19:03;71.65;;;44.28;;
29210;SDS011;16250;49.932;10.980;2024-02-15T03:21:29;69.30;;;42.25;;
29210;SDS011;16250;49.932;10.980;2024-02-15T03:23:55;72.40;;;44.15;;
29210;SDS011;16250;49.932;10.980;2024-02-15T03:26:30;73.20;;;43.67;;
29210;SDS011;16250;49.932;10.980;2024-02-15T03:29:02;79.43;;;46.13;;
29210;SDS011;16250;49.932;10.980;2024-02-15T03:31:28;75.72;;;46.05;;
29210;SDS011;16250;49.932;10.980;2024-02-15T03:33:54;83.15;;;45.58;;
29210;SDS011;16250;49.932;10.980;2024-02-15T03:36:20;65.25;;;41.17;;
29210;SDS011;16250;49.932;10.980;2024-02-15T03:38:46;66.97;;;40.35;;
29210;SDS011;16250;49.932;10.980;2024-02-15T03:41:12;58.05;;;38.42;;
29210;SDS011;16250;49.932;10.980;2024-02-15T03:43:37;67.32;;;41.65;;
29210;SDS011;16250;49.932;10.980;2024-02-15T03:46:03;66.90;;;41.00;;
29210;SDS011;16250;49.932;10.980;2024-02-15T03:48:29;64.05;;;40.88;;
29210;SDS011;16250;49.932;10.980;2024-02-15T03:50:55;55.63;;;37.95;;
29210;SDS011;16250;49.932;10.980;2024-02-15T03:53:21;55.28;;;37.55;;
29210;SDS011;16250;49.932;10.980;2024-02-15T03:55:47;61.97;;;39.42;;
29210;SDS011;16250;49.932;10.980;2024-02-15T03:58:12;58.72;;;38.75;;
29210;SDS011;16250;49.932;10.980;2024-02-15T04:00:39;54.17;;;37.15;;
29210;SDS011;16250;49.932;10.980;2024-02-15T04:03:05;57.30;;;37.45;;
29210;SDS011;16250;49.932;10.980;2024-02-15T04:05:30;55.80;;;37.63;;
29210;SDS011;16250;49.932;10.980;2024-02-15T04:07:56;53.08;;;36.42;;
29210;SDS011;16250;49.932;10.980;2024-02-15T04:10:21;48.30;;;34.55;;
29210;SDS011;16250;49.932;10.980;2024-02-15T04:12:47;53.92;;;35.53;;
29210;SDS011;16250;49.932;10.980;2024-02-15T04:15:12;55.60;;;35.90;;
29210;SDS011;16250;49.932;10.980;2024-02-15T04:17:40;51.78;;;36.63;;
29210;SDS011;16250;49.932;10.980;2024-02-15T04:20:07;59.03;;;38.35;;
29210;SDS011;16250;49.932;10.980;2024-02-15T04:22:34;62.13;;;39.38;;
29210;SDS011;16250;49.932;10.980;2024-02-15T04:25:03;67.10;;;41.47;;
29210;SDS011;16250;49.932;10.980;2024-02-15T04:27:34;60.83;;;38.33;;
29210;SDS011;16250;49.932;10.980;2024-02-15T04:30:00;54.05;;;35.70;;
29210;SDS011;16250;49.932;10.980;2024-02-15T04:32:27;56.13;;;36.58;;
29210;SDS011;16250;49.932;10.980;2024-02-15T04:34:54;62.17;;;39.30;;
29210;SDS011;16250;49.932;10.980;2024-02-15T04:37:19;53.42;;;37.65;;
29210;SDS011;16250;49.932;10.980;2024-02-15T04:39:45;64.88;;;37.92;;
29210;SDS011;16250;49.932;10.980;2024-02-15T04:42:11;57.85;;;36.35;;
29210;SDS011;16250;49.932;10.980;2024-02-15T04:44:40;53.85;;;35.97;;
29210;SDS011;16250;49.932;10.980;2024-02-15T04:47:05;58.17;;;36.88;;
29210;SDS011;16250;49.932;10.980;2024-02-15T04:49:31;51.45;;;35.63;;
29210;SDS011;16250;49.932;10.980;2024-02-15T04:51:57;51.97;;;35.20;;
29210;SDS011;16250;49.932;10.980;2024-02-15T04:54:23;49.40;;;34.03;;
29210;SDS011;16250;49.932;10.980;2024-02-15T04:56:48;48.05;;;34.50;;
29210;SDS011;16250;49.932;10.980;2024-02-15T04:59:15;51.50;;;35.60;;
29210;SDS011;16250;49.932;10.980;2024-02-15T05:01:41;53.20;;;35.60;;
29210;SDS011;16250;49.932;10.980;2024-02-15T05:04:10;56.00;;;37.85;;
29210;SDS011;16250;49.932;10.980;2024-02-15T05:06:37;53.58;;;36.55;;
29210;SDS011;16250;49.932;10.980;2024-02-15T05:09:02;49.55;;;36.38;;
29210;SDS011;16250;49.932;10.980;2024-02-15T05:11:41;42.17;;;32.95;;
29210;SDS011;16250;49.932;10.980;2024-02-15T05:14:11;48.95;;;35.50;;
29210;SDS011;16250;49.932;10.980;2024-02-15T05:16:36;52.25;;;36.85;;
29210;SDS011;16250;49.932;10.980;2024-02-15T05:19:07;57.15;;;37.47;;
29210;SDS011;16250;49.932;10.980;2024-02-15T05:21:35;56.00;;;38.10;;
29210;SDS011;16250;49.932;10.980;2024-02-15T05:24:00;56.30;;;37.55;;
29210;SDS011;16250;49.932;10.980;2024-02-15T05:26:26;58.42;;;36.92;;
29210;SDS011;16250;49.932;10.980;2024-02-15T05:28:51;48.47;;;35.17;;
29210;SDS011;16250;49.932;10.980;2024-02-15T05:31:17;52.42;;;36.38;;
29210;SDS011;16250;49.932;10.980;2024-02-15T05:33:45;55.20;;;38.13;;
29210;SDS011;16250;49.932;10.980;2024-02-15T05:36:14;51.42;;;36.10;;
29210;SDS011;16250;49.932;10.980;2024-02-15T05:38:40;57.78;;;39.15;;
29210;SDS011;16250;49.932;10.980;2024-02-15T05:41:06;56.05;;;36.92;;
29210;SDS011;16250;49.932;10.980;2024-02-15T05:43:34;55.08;;;38.03;;
29210;SDS011;16250;49.932;10.980;2024-02-15T05:46:01;47.58;;;35.70;;
29210;SDS011;16250;49.932;10.980;2024-02-15T05:48:27;45.40;;;33.70;;
29210;SDS011;16250;49.932;10.980;2024-02-15T05:50:54;42.78;;;33.60;;
29210;SDS011;16250;49.932;10.980;2024-02-15T05:53:20;53.22;;;39.78;;
29210;SDS011;16250;49.932;10.980;2024-02-15T05:55:45;51.70;;;36.00;;
29210;SDS011;16250;49.932;10.980;2024-02-15T05:58:11;46.58;;;34.67;;
29210;SDS011;16250;49.932;10.980;2024-02-15T06:00:38;49.92;;;35.47;;
29210;SDS011;16250;49.932;10.980;2024-02-15T06:03:05;45.30;;;33.35;;
29210;SDS011;16250;49.932;10.980;2024-02-15T06:05:31;44.42;;;34.00;;
29210;SDS011;16250;49.932;10.980;2024-02-15T06:07:57;46.90;;;38.10;;
29210;SDS011;16250;49.932;10.980;2024-02-15T06:10:23;50.05;;;36.60;;
29210;SDS011;16250;49.932;10.980;2024-02-15T06:12:50;47.75;;;32.72;;
29210;SDS011;16250;49.932;10.980;2024-02-15T06:15:15;40.40;;;30.48;;
29210;SDS011;16250;49.932;10.980;2024-02-15T06:17:41;46.67;;;34.30;;
29210;SDS011;16250;49.932;10.980;2024-02-15T06:20:10;41.38;;;33.55;;
29210;SDS011;16250;49.932;10.980;2024-02-15T06:22:37;38.47;;;29.52;;
29210;SDS011;16250;49.932;10.980;2024-02-15T06:25:03;42.50;;;34.42;;
29210;SDS011;16250;49.932;10.980;2024-02-15T06:27:28;43.53;;;32.10;;
29210;SDS011;16250;49.932;10.980;2024-02-15T06:29:54;64.45;;;36.35;;
29210;SDS011;16250;49.932;10.980;2024-02-15T06:32:38;46.10;;;35.38;;
29210;SDS011;16250;49.932;10.980;2024-02-15T06:35:21;47.50;;;34.17;;
29210;SDS011;16250;49.932;10.980;2024-02-15T06:38:05;42.60;;;32.55;;
29210;SDS011;16250;49.932;10.980;2024-02-15T06:40:49;36.40;;;29.80;;
29210;SDS011;16250;49.932;10.980;2024-02-15T06:43:14;34.38;;;26.52;;
29210;SDS011;16250;49.932;10.980;2024-02-15T06:45:41;37.42;;;28.67;;
29210;SDS011;16250;49.932;10.980;2024-02-15T06:48:11;34.25;;;27.85;;
29210;SDS011;16250;49.932;10.980;2024-02-15T06:50:37;39.63;;;31.58;;
29210;SDS011;16250;49.932;10.980;2024-02-15T06:53:03;34.75;;;30.20;;
29210;SDS011;16250;49.932;10.980;2024-02-15T06:55:28;36.95;;;30.67;;
29210;SDS011;16250;49.932;10.980;2024-02-15T06:57:53;37.25;;;30.40;;
29210;SDS011;16250;49.932;10.980;2024-02-15T07:00:20;36.78;;;30.65;;
29210;SDS011;16250;49.932;10.980;2024-02-15T07:02:45;34.40;;;29.17;;
29210;SDS011;16250;49.932;10.980;2024-02-15T07:05:13;34.83;;;26.48;;
29210;SDS011;16250;49.932;10.980;2024-02-15T07:07:39;39.28;;;31.45;;
29210;SDS011;16250;49.932;10.980;2024-02-15T07:10:04;41.03;;;31.30;;
29210;SDS011;16250;49.932;10.980;2024-02-15T07:12:31;66.70;;;45.40;;
29210;SDS011;16250;49.932;10.980;2024-02-15T07:14:57;58.10;;;40.72;;
29210;SDS011;16250;49.932;10.980;2024-02-15T07:17:23;123.05;;;83.10;;
29210;SDS011;16250;49.932;10.980;2024-02-15T07:19:48;36.83;;;30.27;;
29210;SDS011;16250;49.932;10.980;2024-02-15T07:22:16;30.73;;;25.83;;
29210;SDS011;16250;49.932;10.980;2024-02-15T07:24:42;28.52;;;24.95;;
29210;SDS011;16250;49.932;10.980;2024-02-15T07:27:07;29.55;;;24.80;;
29210;SDS011;16250;49.932;10.980;2024-02-15T07:29:33;25.92;;;22.70;;
29210;SDS011;16250;49.932;10.980;2024-02-15T07:32:02;27.45;;;24.20;;
29210;SDS011;16250;49.932;10.980;2024-02-15T07:34:31;27.63;;;24.15;;
29210;SDS011;16250;49.932;10.980;2024-02-15T07:36:56;30.90;;;24.85;;
29210;SDS011;16250;49.932;10.980;2024-02-15T07:39:25;26.00;;;23.17;;
29210;SDS011;16250;49.932;10.980;2024-02-15T07:41:56;29.00;;;23.20;;
29210;SDS011;16250;49.932;10.980;2024-02-15T07:44:23;29.38;;;24.02;;
29210;SDS011;16250;49.932;10.980;2024-02-15T07:46:49;25.13;;;21.95;;
29210;SDS011;16250;49.932;10.980;2024-02-15T07:49:15;26.23;;;23.35;;
29210;SDS011;16250;49.932;10.980;2024-02-15T07:51:42;25.23;;;22.60;;
29210;SDS011;16250;49.932;10.980;2024-02-15T07:54:08;27.48;;;22.75;;
29210;SDS011;16250;49.932;10.980;2024-02-15T07:56:34;26.33;;;21.55;;
29210;SDS011;16250;49.932;10.980;2024-02-15T07:59:00;22.65;;;20.05;;
29210;SDS011;16250;49.932;10.980;2024-02-15T08:01:25;24.45;;;21.92;;
29210;SDS011;16250;49.932;10.980;2024-02-15T08:03:51;28.27;;;22.05;;
29210;SDS011;16250;49.932;10.980;2024-02-15T08:06:17;25.40;;;21.58;;
29210;SDS011;16250;49.932;10.980;2024-02-15T08:08:43;29.15;;;23.77;;
29210;SDS011;16250;49.932;10.980;2024-02-15T08:11:13;22.83;;;20.45;;
29210;SDS011;16250;49.932;10.980;2024-02-15T08:13:45;27.60;;;22.80;;
29210;SDS011;16250;49.932;10.980;2024-02-15T08:16:15;27.13;;;22.02;;
29210;SDS011;16250;49.932;10.980;2024-02-15T08:18:41;23.83;;;20.52;;
29210;SDS011;16250;49.932;10.980;2024-02-15T08:21:11;23.92;;;21.42;;
29210;SDS011;16250;49.932;10.980;2024-02-15T08:23:37;24.67;;;20.98;;
29210;SDS011;16250;49.932;10.980;2024-02-15T08:26:02;22.77;;;20.42;;
29210;SDS011;16250;49.932;10.980;2024-02-15T08:28:28;23.15;;;20.65;;
29210;SDS011;16250;49.932;10.980;2024-02-15T08:30:54;24.38;;;21.08;;
29210;SDS011;16250;49.932;10.980;2024-02-15T08:33:21;23.55;;;19.40;;
29210;SDS011;16250;49.932;10.980;2024-02-15T08:35:46;19.00;;;17.10;;
29210;SDS011;16250;49.932;10.980;2024-02-15T08:38:12;21.23;;;17.05;;
29210;SDS011;16250;49.932;10.980;2024-02-15T08:40:37;19.20;;;17.05;;
29210;SDS011;16250;49.932;10.980;2024-02-15T08:43:02;19.50;;;16.02;;
29210;SDS011;16250;49.932;10.980;2024-02-15T08:45:28;16.58;;;14.82;;
29210;SDS011;16250;49.932;10.980;2024-02-15T08:47:53;15.93;;;14.27;;
29210;SDS011;16250;49.932;10.980;2024-02-15T08:50:19;16.85;;;15.15;;
29210;SDS011;16250;49.932;10.980;2024-02-15T08:52:46;17.80;;;15.10;;
29210;SDS011;16250;49.932;10.980;2024-02-15T08:55:12;18.25;;;14.25;;
29210;SDS011;16250;49.932;10.980;2024-02-15T08:57:40;18.63;;;15.18;;
29210;SDS011;16250;49.932;10.980;2024-02-15T09:00:11;16.23;;;13.93;;
29210;SDS011;16250;49.932;10.980;2024-02-15T09:02:48;16.77;;;14.20;;
29210;SDS011;16250;49.932;10.980;2024-02-15T09:05:17;18.02;;;14.38;;
29210;SDS011;16250;49.932;10.980;2024-02-15T09:07:43;14.90;;;13.60;;
29210;SDS011;16250;49.932;10.980;2024-02-15T09:10:13;16.33;;;14.43;;
29210;SDS011;16250;49.932;10.980;2024-02-15T09:12:42;17.45;;;14.20;;
29210;SDS011;16250;49.932;10.980;2024-02-15T09:15:10;19.45;;;14.50;;
29210;SDS011;16250;49.932;10.980;2024-02-15T09:17:38;22.70;;;13.95;;
29210;SDS011;16250;49.932;10.980;2024-02-15T09:20:07;23.35;;;15.18;;
29210;SDS011;16250;49.932;10.980;2024-02-15T09:22:34;20.73;;;14.63;;
29210;SDS011;16250;49.932;10.980;2024-02-15T09:25:01;18.00;;;13.52;;
29210;SDS011;16250;49.932;10.980;2024-02-15T09:27:27;20.10;;;14.35;;
29210;SDS011;16250;49.932;10.980;2024-02-15T09:29:53;15.75;;;11.82;;
29210;SDS011;16250;49.932;10.980;2024-02-15T09:32:18;10.68;;;9.15;;
29210;SDS011;16250;49.932;10.980;2024-02-15T09:34:44;12.80;;;10.52;;
29210;SDS011;16250;49.932;10.980;2024-02-15T09:37:09;10.18;;;7.45;;
29210;SDS011;16250;49.932;10.980;2024-02-15T09:39:36;9.90;;;7.03;;
29210;SDS011;16250;49.932;10.980;2024-02-15T09:42:02;8.73;;;6.80;;
29210;SDS011;16250;49.932;10.980;2024-02-15T09:44:28;8.30;;;7.07;;
29210;SDS011;16250;49.932;10.980;2024-02-15T09:47:04;10.48;;;7.28;;
29210;SDS011;16250;49.932;10.980;2024-02-15T09:49:35;8.65;;;6.75;;
29210;SDS011;16250;49.932;10.980;2024-02-15T09:52:01;7.03;;;6.32;;
29210;SDS011;16250;49.932;10.980;2024-02-15T09:54:28;9.48;;;6.10;;
29210;SDS011;16250;49.932;10.980;2024-02-15T09:56:54;7.68;;;6.45;;
29210;SDS011;16250;49.932;10.980;2024-02-15T09:59:20;9.50;;;5.97;;
29210;SDS011;16250;49.932;10.980;2024-02-15T10:01:46;6.40;;;5.43;;
29210;SDS011;16250;49.932;10.980;2024-02-15T10:04:12;8.75;;;5.70;;
29210;SDS011;16250;49.932;10.980;2024-02-15T10:06:41;8.73;;;5.68;;
29210;SDS011;16250;49.932;10.980;2024-02-15T10:11:55;5.60;;;5.10;;
29210;SDS011;16250;49.932;10.980;2024-02-15T10:14:24;6.65;;;5.72;;
29210;SDS011;16250;49.932;10.980;2024-02-15T10:16:53;6.35;;;5.43;;
29210;SDS011;16250;49.932;10.980;2024-02-15T10:19:19;5.88;;;5.22;;
29210;SDS011;16250;49.932;10.980;2024-02-15T10:21:52;5.97;;;5.28;;
29210;SDS011;16250;49.932;10.980;2024-02-15T10:24:22;9.05;;;6.30;;
29210;SDS011;16250;49.932;10.980;2024-02-15T10:26:49;9.15;;;6.97;;
29210;SDS011;16250;49.932;10.980;2024-02-15T10:29:15;7.57;;;5.97;;
29210;SDS011;16250;49.932;10.980;2024-02-15T10:31:55;8.98;;;5.55;;
29210;SDS011;16250;49.932;10.980;2024-02-15T10:34:21;11.27;;;4.72;;
29210;SDS011;16250;49.932;10.980;2024-02-15T10:36:48;6.05;;;4.50;;
29210;SDS011;16250;49.932;10.980;2024-02-15T10:41:47;6.65;;;5.18;;
29210;SDS011;16250;49.932;10.980;2024-02-15T10:44:15;5.97;;;4.75;;
29210;SDS011;16250;49.932;10.980;2024-02-15T10:46:42;7.32;;;4.72;;
29210;SDS011;16250;49.932;10.980;2024-02-15T10:49:09;7.70;;;4.35;;
29210;SDS011;16250;49.932;10.980;2024-02-15T10:51:34;7.97;;;4.57;;
29210;SDS011;16250;49.932;10.980;2024-02-15T10:54:02;7.22;;;4.20;;
29210;SDS011;16250;49.932;10.980;2024-02-15T10:56:34;5.65;;;4.78;;
29210;SDS011;16250;49.932;10.980;2024-02-15T10:59:20;5.85;;;4.50;;
29210;SDS011;16250;49.932;10.980;2024-02-15T11:01:52;8.20;;;4.40;;
29210;SDS011;16250;49.932;10.980;2024-02-15T11:04:20;6.22;;;4.43;;
29210;SDS011;16250;49.932;10.980;2024-02-15T11:06:50;7.32;;;4.20;;
29210;SDS011;16250;49.932;10.980;2024-02-15T11:09:17;6.30;;;4.18;;
29210;SDS011;16250;49.932;10.980;2024-02-15T11:11:43;6.88;;;4.32;;
29210;SDS011;16250;49.932;10.980;2024-02-15T11:17:00;7.95;;;4.30;;
29210;SDS011;16250;49.932;10.980;2024-02-15T11:21:59;4.82;;;3.63;;
29210;SDS011;16250;49.932;10.980;2024-02-15T11:24:29;5.53;;;3.50;;
29210;SDS011;16250;49.932;10.980;2024-02-15T11:27:00;6.05;;;3.60;;
29210;SDS011;16250;49.932;10.980;2024-02-15T11:29:48;4.57;;;3.35;;
29210;SDS011;16250;49.932;10.980;2024-02-15T11:40:20;7.28;;;3.30;;
29210;SDS011;16250;49.932;10.980;2024-02-15T11:45:24;6.80;;;3.40;;
29210;SDS011;16250;49.932;10.980;2024-02-15T11:47:51;5.88;;;3.20;;
29210;SDS011;16250;49.932;10.980;2024-02-15T11:50:19;6.43;;;3.20;;
29210;SDS011;16250;49.932;10.980;2024-02-15T11:52:46;5.03;;;3.35;;
29210;SDS011;16250;49.932;10.980;2024-02-15T11:55:14;7.38;;;4.38;;
29210;SDS011;16250;49.932;10.980;2024-02-15T11:57:44;6.60;;;3.75;;
29210;SDS011;16250;49.932;10.980;2024-02-15T12:03:14;7.88;;;3.20;;
29210;SDS011;16250;49.932;10.980;2024-02-15T12:05:59;5.32;;;3.10;;
29210;SDS011;16250;49.932;10.980;2024-02-15T12:08:43;4.82;;;2.92;;
29210;SDS011;16250;49.932;10.980;2024-02-15T12:11:31;7.25;;;4.53;;
29210;SDS011;16250;49.932;10.980;2024-02-15T12:14:15;7.88;;;3.63;;
29210;SDS011;16250;49.932;10.980;2024-02-15T12:17:02;7.03;;;3.55;;
29210;SDS011;16250;49.932;10.980;2024-02-15T12:19:50;5.20;;;3.25;;
29210;SDS011;16250;49.932;10.980;2024-02-15T12:22:28;5.20;;;3.28;;
29210;SDS011;16250;49.932;10.980;2024-02-15T12:24:56;6.60;;;3.50;;
29210;SDS011;16250;49.932;10.980;2024-02-15T12:27:23;6.47;;;3.42;;
29210;SDS011;16250;49.932;10.980;2024-02-15T12:29:52;6.85;;;3.53;;
29210;SDS011;16250;49.932;10.980;2024-02-15T12:32:22;7.60;;;3.25;;
29210;SDS011;16250;49.932;10.980;2024-02-15T12:34:48;6.22;;;3.03;;
29210;SDS011;16250;49.932;10.980;2024-02-15T12:37:17;6.80;;;3.15;;
29210;SDS011;16250;49.932;10.980;2024-02-15T12:39:42;3.95;;;2.83;;
29210;SDS011;16250;49.932;10.980;2024-02-15T12:42:08;8.40;;;3.20;;
29210;SDS011;16250;49.932;10.980;2024-02-15T12:44:34;9.60;;;3.10;;
29210;SDS011;16250;49.932;10.980;2024-02-15T12:47:00;5.13;;;2.88;;
29210;SDS011;16250;49.932;10.980;2024-02-15T12:49:28;4.80;;;3.00;;
29210;SDS011;16250;49.932;10.980;2024-02-15T12:52:33;4.78;;;3.22;;
29210;SDS011;16250;49.932;10.980;2024-02-15T12:55:10;7.78;;;2.90;;
29210;SDS011;16250;49.932;10.980;2024-02-15T12:57:36;9.43;;;3.05;;
29210;SDS011;16250;49.932;10.980;2024-02-15T13:00:02;7.35;;;2.88;;
29210;SDS011;16250;49.932;10.980;2024-02-15T13:02:36;6.07;;;3.10;;
29210;SDS011;16250;49.932;10.980;2024-02-15T13:05:03;5.40;;;2.67;;
29210;SDS011;16250;49.932;10.980;2024-02-15T13:07:29;11.10;;;2.80;;
29210;SDS011;16250;49.932;10.980;2024-02-15T13:09:55;7.28;;;2.90;;
29210;SDS011;16250;49.932;10.980;2024-02-15T13:12:20;4.07;;;2.53;;
29210;SDS011;16250;49.932;10.980;2024-02-15T13:14:45;6.55;;;2.38;;
29210;SDS011;16250;49.932;10.980;2024-02-15T13:17:11;4.15;;;2.28;;
29210;SDS011;16250;49.932;10.980;2024-02-15T13:19:36;7.97;;;2.53;;
29210;SDS011;16250;49.932;10.980;2024-02-15T13:22:02;7.78;;;2.47;;
29210;SDS011;16250;49.932;10.980;2024-02-15T13:24:27;7.03;;;2.10;;
29210;SDS011;16250;49.932;10.980;2024-02-15T13:26:52;21.00;;;18.77;;
29210;SDS011;16250;49.932;10.980;2024-02-15T13:29:18;4.47;;;2.85;;
29210;SDS011;16250;49.932;10.980;2024-02-15T13:31:45;4.80;;;2.05;;
29210;SDS011;16250;49.932;10.980;2024-02-15T13:34:11;5.65;;;2.35;;
29210;SDS011;16250;49.932;10.980;2024-02-15T13:36:37;4.40;;;2.40;;
29210;SDS011;16250;49.932;10.980;2024-02-15T13:39:03;5.25;;;2.45;;
29210;SDS011;16250;49.932;10.980;2024-02-15T13:41:30;5.80;;;2.50;;
29210;SDS011;16250;49.932;10.980;2024-02-15T13:43:55;5.63;;;2.45;;
29210;SDS011;16250;49.932;10.980;2024-02-15T13:46:20;7.32;;;3.03;;
29210;SDS011;16250;49.932;10.980;2024-02-15T13:48:46;6.25;;;3.30;;
29210;SDS011;16250;49.932;10.980;2024-02-15T13:51:11;5.00;;;2.70;;
29210;SDS011;16250;49.932;10.980;2024-02-15T13:53:36;8.57;;;3.30;;
29210;SDS011;16250;49.932;10.980;2024-02-15T13:56:02;7.13;;;3.58;;
29210;SDS011;16250;49.932;10.980;2024-02-15T13:58:28;8.20;;;3.65;;
29210;SDS011;16250;49.932;10.980;2024-02-15T14:00:53;8.20;;;3.65;;
29210;SDS011;16250;49.932;10.980;2024-02-15T14:03:19;8.38;;;3.67;;
29210;SDS011;16250;49.932;10.980;2024-02-15T14:05:46;8.57;;;3.90;;
29210;SDS011;16250;49.932;10.980;2024-02-15T14:08:12;8.85;;;3.90;;
29210;SDS011;16250;49.932;10.980;2024-02-15T14:10:38;5.45;;;2.90;;
29210;SDS011;16250;49.932;10.980;2024-02-15T14:13:04;5.60;;;2.65;;
29210;SDS011;16250;49.932;10.980;2024-02-15T14:15:31;4.78;;;2.50;;
29210;SDS011;16250;49.932;10.980;2024-02-15T14:18:11;10.40;;;2.83;;
29210;SDS011;16250;49.932;10.980;2024-02-15T14:20:43;6.22;;;2.60;;
29210;SDS011;16250;49.932;10.980;2024-02-15T14:23:11;6.72;;;3.40;;
29210;SDS011;16250;49.932;10.980;2024-02-15T14:25:38;6.55;;;3.72;;
29210;SDS011;16250;49.932;10.980;2024-02-15T14:28:04;5.75;;;2.83;;
29210;SDS011;16250;49.932;10.980;2024-02-15T14:30:32;5.65;;;2.50;;
29210;SDS011;16250;49.932;10.980;2024-02-15T14:33:16;5.15;;;2.28;;
29210;SDS011;16250;49.932;10.980;2024-02-15T14:35:44;6.90;;;2.78;;
29210;SDS011;16250;49.932;10.980;2024-02-15T14:38:10;6.22;;;2.58;;
29210;SDS011;16250;49.932;10.980;2024-02-15T14:40:41;7.50;;;2.88;;
29210;SDS011;16250;49.932;10.980;2024-02-15T14:43:11;5.30;;;2.45;;
29210;SDS011;16250;49.932;10.980;2024-02-15T14:45:40;6.90;;;2.20;;